createdAt,value
2023-03-06T00:00:33.264Z,33.13
2023-03-06T00:02:59.757Z,35.58
2023-03-06T00:05:26.546Z,38.90
2023-03-06T00:07:53.121Z,35.08
2023-03-06T00:10:22.592Z,38.80
2023-03-06T00:12:52.169Z,34.60
2023-03-06T00:15:19.114Z,31.25
2023-03-06T00:17:45.506Z,31.83
2023-03-06T00:20:12.776Z,35.10
2023-03-06T00:22:40.359Z,33.72
2023-03-06T00:25:08.400Z,36.42
2023-03-06T00:27:34.883Z,31.45
2023-03-06T00:30:01.754Z,32.15
2023-03-06T00:32:28.919Z,32.03
2023-03-06T00:34:55.940Z,33.58
2023-03-06T00:37:23.880Z,31.65
2023-03-06T00:39:50.792Z,31.80
2023-03-06T00:42:18.468Z,33.22
2023-03-06T00:44:45.912Z,36.90
2023-03-06T00:47:13.303Z,33.60
2023-03-06T00:49:39.731Z,28.90
2023-03-06T00:52:06.109Z,29.40
2023-03-06T00:54:32.598Z,34.90
2023-03-06T00:56:59.024Z,30.10
2023-03-06T00:59:25.537Z,30.33
2023-03-06T01:01:52.058Z,34.35
2023-03-06T01:04:18.688Z,31.10
2023-03-06T01:06:45.297Z,34.60
2023-03-06T01:09:11.718Z,28.45
2023-03-06T01:11:38.208Z,37.72
2023-03-06T01:14:04.794Z,40.35
2023-03-06T01:16:31.459Z,36.72
2023-03-06T01:18:58.543Z,32.08
2023-03-06T01:21:25.061Z,32.63
2023-03-06T01:23:51.556Z,36.45
2023-03-06T01:26:18.206Z,42.17
2023-03-06T01:28:44.685Z,35.75
2023-03-06T01:31:11.373Z,30.50
2023-03-06T01:33:38.257Z,41.42
2023-03-06T01:36:11.378Z,32.58
2023-03-06T01:38:38.226Z,27.77
2023-03-06T01:41:05.463Z,40.22
2023-03-06T01:43:34.484Z,28.58
2023-03-06T01:46:25.028Z,34.22
2023-03-06T01:48:59.175Z,30.58
2023-03-06T01:51:30.394Z,30.67
2023-03-06T01:54:00.030Z,34.47
2023-03-06T01:56:26.741Z,30.65
2023-03-06T01:58:53.517Z,33.03
2023-03-06T02:01:20.834Z,28.08
2023-03-06T02:03:50.044Z,29.85
2023-03-06T02:06:19.796Z,30.60
2023-03-06T02:08:48.939Z,31.52
2023-03-06T02:11:22.062Z,32.22
2023-03-06T02:13:50.737Z,28.80
2023-03-06T02:16:20.055Z,29.13
2023-03-06T02:18:47.189Z,31.52
2023-03-06T02:21:21.768Z,34.50
2023-03-06T02:24:10.420Z,35.70
2023-03-06T02:26:38.057Z,31.10
2023-03-06T02:29:04.831Z,30.52
2023-03-06T02:31:33.058Z,26.58
2023-03-06T02:34:05.775Z,36.90
2023-03-06T02:36:35.145Z,27.23
2023-03-06T02:39:01.889Z,29.75
2023-03-06T02:41:28.693Z,29.05
2023-03-06T02:43:55.247Z,28.75
2023-03-06T02:46:21.736Z,30.63
2023-03-06T02:48:48.178Z,26.60
2023-03-06T02:51:14.612Z,26.90
2023-03-06T02:53:41.083Z,26.00
2023-03-06T02:56:07.780Z,29.17
2023-03-06T02:58:34.249Z,28.60
2023-03-06T03:01:00.699Z,31.33
2023-03-06T03:03:27.108Z,24.67
2023-03-06T03:05:53.775Z,26.27
2023-03-06T03:08:20.221Z,23.80
2023-03-06T03:10:46.687Z,24.45
2023-03-06T03:13:13.203Z,26.70
2023-03-06T03:15:39.798Z,23.23
2023-03-06T03:18:06.179Z,22.65
2023-03-06T03:20:32.838Z,23.38
2023-03-06T03:22:59.316Z,29.63
2023-03-06T03:25:26.265Z,22.85
2023-03-06T03:27:53.015Z,24.13
2023-03-06T03:30:19.669Z,19.45
2023-03-06T03:32:46.265Z,26.33
2023-03-06T03:35:12.765Z,18.08
2023-03-06T03:37:39.317Z,19.33
2023-03-06T03:40:07.277Z,19.98
2023-03-06T03:42:33.904Z,20.02
2023-03-06T03:45:00.365Z,19.95
2023-03-06T03:47:26.726Z,19.02
2023-03-06T03:49:53.151Z,20.30
2023-03-06T03:52:19.572Z,20.40
2023-03-06T03:54:46.327Z,19.90
2023-03-06T03:57:12.719Z,19.55
2023-03-06T03:59:39.132Z,19.55
2023-03-06T04:02:05.671Z,16.77
2023-03-06T04:04:32.198Z,18.02
2023-03-06T04:06:58.702Z,21.73
2023-03-06T04:09:25.160Z,20.20
2023-03-06T04:11:51.870Z,20.90
2023-03-06T04:14:18.335Z,19.95
2023-03-06T04:16:44.837Z,21.73
2023-03-06T04:19:11.667Z,19.70
2023-03-06T04:21:38.117Z,22.85
2023-03-06T04:24:04.984Z,22.48
2023-03-06T04:26:31.511Z,22.38
2023-03-06T04:28:58.599Z,19.20
2023-03-06T04:31:25.436Z,24.25
2023-03-06T04:33:51.875Z,21.42
2023-03-06T04:36:25.396Z,20.00
2023-03-06T04:38:51.831Z,21.25
2023-03-06T04:41:18.244Z,16.63
2023-03-06T04:43:44.737Z,22.38
2023-03-06T04:46:11.320Z,24.45
2023-03-06T04:48:37.781Z,21.25
2023-03-06T04:51:04.428Z,24.17
2023-03-06T04:53:31.176Z,22.70
2023-03-06T04:55:57.564Z,25.75
2023-03-06T04:58:24.040Z,25.63
2023-03-06T05:00:50.862Z,24.15
2023-03-06T05:03:17.490Z,22.00
2023-03-06T05:05:43.899Z,23.13
2023-03-06T05:08:13.293Z,19.80
2023-03-06T05:10:39.834Z,23.52
2023-03-06T05:13:06.274Z,23.35
2023-03-06T05:15:32.994Z,24.10
2023-03-06T05:17:59.448Z,26.52
2023-03-06T05:20:26.249Z,23.63
2023-03-06T05:22:52.768Z,24.02
2023-03-06T05:25:19.258Z,20.90
2023-03-06T05:27:45.758Z,26.00
2023-03-06T05:30:14.094Z,21.90
2023-03-06T05:35:07.555Z,19.92
2023-03-06T05:37:33.985Z,22.60
2023-03-06T05:40:00.806Z,23.25
2023-03-06T05:42:30.999Z,19.63
2023-03-06T05:44:57.422Z,20.50
2023-03-06T05:47:23.854Z,22.67
2023-03-06T05:49:50.334Z,20.63
2023-03-06T05:52:17.493Z,24.58
2023-03-06T05:54:44.007Z,20.58
2023-03-06T05:57:10.454Z,22.45
2023-03-06T05:59:36.996Z,19.85
2023-03-06T06:02:05.308Z,20.52
2023-03-06T06:04:31.762Z,20.10
2023-03-06T06:07:00.321Z,23.58
2023-03-06T06:09:27.421Z,22.50
2023-03-06T06:11:56.939Z,20.35
2023-03-06T06:14:24.086Z,26.55
2023-03-06T06:16:51.407Z,24.23
2023-03-06T06:19:20.978Z,24.25
2023-03-06T06:21:49.975Z,23.13
2023-03-06T06:24:18.147Z,26.23
2023-03-06T06:26:45.331Z,22.25
2023-03-06T06:29:12.926Z,25.42
2023-03-06T06:31:40.278Z,23.38
2023-03-06T06:34:07.723Z,24.13
2023-03-06T06:36:34.331Z,26.75
2023-03-06T06:39:00.892Z,24.00
2023-03-06T06:41:46.134Z,22.77
2023-03-06T06:44:16.110Z,23.67
2023-03-06T06:49:31.969Z,19.80
2023-03-06T06:51:58.391Z,22.48
2023-03-06T06:54:24.962Z,19.95
2023-03-06T06:56:51.443Z,22.67
2023-03-06T06:59:17.904Z,21.15
2023-03-06T07:01:44.641Z,20.15
2023-03-06T07:04:14.658Z,26.75
2023-03-06T07:06:42.275Z,20.85
2023-03-06T07:09:08.855Z,20.42
2023-03-06T07:11:37.513Z,21.83
2023-03-06T07:14:04.098Z,21.40
2023-03-06T07:16:30.506Z,21.77
2023-03-06T07:18:57.016Z,21.35
2023-03-06T07:21:23.698Z,20.75
2023-03-06T07:23:50.289Z,21.08
2023-03-06T07:26:16.708Z,26.40
2023-03-06T07:28:52.035Z,22.23
2023-03-06T07:31:25.789Z,21.23
2023-03-06T07:33:54.670Z,20.67
2023-03-06T07:36:22.761Z,21.90
2023-03-06T07:38:49.476Z,26.60
2023-03-06T07:41:16.525Z,21.55
2023-03-06T07:43:44.979Z,21.52
2023-03-06T07:46:13.103Z,28.10
2023-03-06T07:48:40.133Z,21.65
2023-03-06T07:51:13.163Z,21.95
2023-03-06T07:53:39.586Z,19.33
2023-03-06T07:56:08.909Z,22.80
2023-03-06T07:58:36.440Z,20.52
2023-03-06T08:01:04.532Z,21.52
2023-03-06T08:06:14.300Z,20.15
2023-03-06T08:08:42.833Z,20.23
2023-03-06T08:11:11.343Z,18.13
2023-03-06T08:13:38.685Z,21.35
2023-03-06T08:16:06.296Z,19.02
2023-03-06T08:18:33.183Z,17.20
2023-03-06T08:21:08.907Z,17.10
2023-03-06T08:23:35.619Z,18.00
2023-03-06T08:26:07.787Z,23.92
2023-03-06T08:28:34.963Z,17.88
2023-03-06T08:31:26.823Z,22.15
2023-03-06T08:33:55.037Z,18.13
2023-03-06T08:38:48.441Z,19.08
2023-03-06T08:41:15.083Z,17.92
2023-03-06T08:43:41.928Z,21.35
2023-03-06T08:46:09.743Z,16.70
2023-03-06T08:48:36.208Z,19.25
2023-03-06T08:51:02.678Z,19.63
2023-03-06T08:53:42.170Z,20.73
2023-03-06T08:56:22.266Z,19.20
2023-03-06T08:58:49.916Z,16.27
2023-03-06T09:01:21.709Z,18.40
2023-03-06T09:03:48.996Z,17.70
2023-03-06T09:06:16.212Z,19.67
2023-03-06T09:08:44.407Z,18.27
2023-03-06T09:11:15.341Z,16.92
2023-03-06T09:13:43.019Z,18.73
2023-03-06T09:16:11.225Z,15.07
2023-03-06T09:18:37.929Z,18.08
2023-03-06T09:21:05.802Z,16.55
2023-03-06T09:23:32.911Z,18.23
2023-03-06T09:26:00.680Z,15.57
2023-03-06T09:28:27.509Z,16.90
2023-03-06T09:30:54.410Z,16.85
2023-03-06T09:33:21.697Z,20.65
2023-03-06T09:35:51.921Z,14.70
2023-03-06T09:38:22.826Z,14.07
2023-03-06T09:40:54.950Z,16.58
2023-03-06T09:43:30.909Z,15.50
2023-03-06T09:45:58.597Z,15.90
2023-03-06T09:48:38.891Z,20.52
2023-03-06T09:51:15.011Z,19.27
2023-03-06T09:53:49.800Z,15.00
2023-03-06T09:56:30.995Z,17.85
2023-03-06T09:59:33.223Z,14.35
2023-03-06T10:02:19.673Z,17.88
2023-03-06T10:04:54.805Z,15.07
2023-03-06T10:07:50.223Z,15.13
2023-03-06T10:10:25.906Z,18.23
2023-03-06T10:13:00.402Z,14.85
2023-03-06T10:15:32.118Z,17.60
2023-03-06T10:17:58.603Z,16.88
2023-03-06T10:20:28.399Z,17.73
2023-03-06T10:23:27.442Z,17.90
2023-03-06T10:26:02.123Z,15.18
2023-03-06T10:28:55.559Z,12.25
2023-03-06T10:31:27.122Z,16.27
2023-03-06T10:33:59.672Z,15.43
2023-03-06T10:36:28.521Z,17.77
2023-03-06T10:38:57.092Z,19.20
2023-03-06T10:41:35.788Z,20.60
2023-03-06T10:44:05.203Z,16.38
2023-03-06T10:46:37.245Z,17.55
2023-03-06T10:49:23.339Z,18.08
2023-03-06T10:51:57.292Z,23.42
2023-03-06T10:54:24.205Z,15.75
2023-03-06T10:56:50.661Z,20.30
2023-03-06T10:59:18.753Z,16.80
2023-03-06T11:01:48.439Z,17.35
2023-03-06T11:04:22.665Z,18.38
2023-03-06T11:07:04.359Z,16.20
2023-03-06T11:12:27.559Z,15.40
2023-03-06T11:15:21.288Z,13.45
2023-03-06T11:17:49.285Z,14.02
2023-03-06T11:20:18.829Z,12.98
2023-03-06T11:23:03.221Z,12.25
2023-03-06T11:25:38.592Z,12.52
2023-03-06T11:28:26.113Z,11.32
2023-03-06T11:30:59.633Z,11.18
2023-03-06T11:33:36.829Z,13.13
2023-03-06T11:36:17.205Z,11.18
2023-03-06T11:38:50.036Z,11.45
2023-03-06T11:41:33.742Z,11.93
2023-03-06T11:44:19.867Z,11.82
2023-03-06T11:47:08.438Z,19.20
2023-03-06T11:50:00.938Z,13.05
2023-03-06T11:52:38.069Z,12.40
2023-03-06T11:55:04.629Z,13.27
2023-03-06T11:57:52.510Z,13.32
2023-03-06T12:00:32.857Z,9.98
2023-03-06T12:03:32.676Z,11.68
2023-03-06T12:06:25.362Z,12.30
2023-03-06T12:09:09.383Z,16.27
2023-03-06T12:11:42.402Z,12.35
2023-03-06T12:14:33.525Z,11.82
2023-03-06T12:17:24.372Z,13.50
2023-03-06T12:20:18.848Z,12.80
2023-03-06T12:23:02.523Z,10.57
2023-03-06T12:25:42.381Z,12.80
2023-03-06T12:28:25.121Z,14.13
2023-03-06T12:31:10.304Z,12.38
2023-03-06T12:33:56.276Z,9.75
2023-03-06T12:36:51.173Z,13.35
2023-03-06T12:39:31.779Z,11.93
2023-03-06T12:42:27.449Z,14.30
2023-03-06T12:45:18.678Z,13.98
2023-03-06T12:47:47.305Z,12.02
2023-03-06T12:50:20.589Z,12.18
2023-03-06T12:52:48.096Z,13.10
2023-03-06T12:55:21.174Z,12.80
2023-03-06T12:57:49.455Z,12.25
2023-03-06T13:00:38.771Z,12.13
2023-03-06T13:03:19.895Z,11.60
2023-03-06T13:06:13.173Z,11.80
2023-03-06T13:09:11.090Z,13.05
2023-03-06T13:11:43.541Z,13.27
2023-03-06T13:14:54.637Z,13.27
2023-03-06T13:17:24.872Z,10.82
2023-03-06T13:20:12.933Z,10.55
2023-03-06T13:22:47.200Z,11.38
2023-03-06T13:25:34.151Z,14.65
2023-03-06T13:28:04.020Z,12.20
2023-03-06T13:30:36.662Z,12.88
2023-03-06T13:33:36.317Z,15.65
2023-03-06T13:36:23.081Z,13.38
2023-03-06T13:38:52.144Z,11.65
2023-03-06T13:41:27.855Z,10.52
2023-03-06T13:44:26.149Z,12.98
2023-03-06T13:47:19.405Z,10.55
2023-03-06T13:49:48.255Z,13.18
2023-03-06T13:52:34.049Z,11.30
2023-03-06T13:55:18.002Z,12.57
2023-03-06T13:57:50.168Z,13.30
2023-03-06T14:00:37.147Z,11.38
2023-03-06T14:03:33.989Z,12.88
2023-03-06T14:06:00.450Z,16.10
2023-03-06T14:08:31.996Z,11.30
2023-03-06T14:11:13.564Z,10.88
2023-03-06T14:13:48.633Z,10.80
2023-03-06T14:16:37.570Z,10.30
2023-03-06T14:19:17.204Z,11.88
2023-03-06T14:21:51.124Z,13.55
2023-03-06T14:24:20.199Z,11.38
2023-03-06T14:26:49.784Z,11.27
2023-03-06T14:29:20.089Z,11.35
2023-03-06T14:31:50.486Z,11.75
2023-03-06T14:34:23.909Z,13.93
2023-03-06T14:36:53.485Z,12.50
2023-03-06T14:39:21.535Z,11.15
2023-03-06T14:41:48.047Z,12.02
2023-03-06T14:44:17.834Z,11.80
2023-03-06T14:46:46.147Z,8.82
2023-03-06T14:49:15.203Z,10.30
2023-03-06T14:51:45.114Z,11.27
2023-03-06T14:54:34.747Z,12.98
2023-03-06T14:57:12.102Z,11.10
2023-03-06T14:59:50.772Z,11.38
2023-03-06T15:02:23.843Z,10.43
2023-03-06T15:04:58.214Z,10.88
2023-03-06T15:07:30.436Z,10.13
2023-03-06T15:09:58.186Z,8.95
2023-03-06T15:12:24.568Z,11.70
2023-03-06T15:15:00.187Z,12.63
2023-03-06T15:17:40.785Z,11.80
2023-03-06T15:20:28.352Z,12.52
2023-03-06T15:22:55.366Z,11.23
2023-03-06T15:25:26.533Z,12.63
2023-03-06T15:28:18.456Z,11.75
2023-03-06T15:31:21.173Z,11.18
2023-03-06T15:34:26.125Z,11.48
2023-03-06T15:37:01.344Z,12.20
2023-03-06T15:39:41.378Z,11.60
2023-03-06T15:42:20.506Z,11.43
2023-03-06T15:44:53.015Z,13.15
2023-03-06T15:47:20.123Z,13.02
2023-03-06T15:49:46.818Z,15.23
2023-03-06T15:52:13.329Z,12.75
2023-03-06T15:54:39.870Z,12.10
2023-03-06T15:57:08.592Z,12.02
2023-03-06T15:59:42.842Z,13.00
2023-03-06T16:02:18.426Z,13.15
2023-03-06T16:04:45.264Z,11.15
2023-03-06T16:07:12.505Z,11.13
2023-03-06T16:09:40.368Z,11.43
2023-03-06T16:12:13.804Z,10.48
2023-03-06T16:14:40.422Z,13.77
2023-03-06T16:17:06.872Z,12.98
2023-03-06T16:19:33.305Z,11.88
2023-03-06T16:21:59.826Z,11.70
2023-03-06T16:24:26.609Z,11.25
2023-03-06T16:26:54.866Z,14.07
2023-03-06T16:31:49.262Z,11.95
2023-03-06T16:34:15.729Z,15.00
2023-03-06T16:36:42.518Z,15.30
2023-03-06T16:39:17.040Z,13.35
2023-03-06T16:41:45.791Z,14.23
2023-03-06T16:44:12.925Z,13.57
2023-03-06T16:46:42.555Z,17.95
2023-03-06T16:49:24.522Z,12.90
2023-03-06T16:51:51.705Z,15.35
2023-03-06T16:54:18.090Z,16.33
2023-03-06T16:56:45.049Z,16.77
2023-03-06T16:59:11.921Z,15.10
2023-03-06T17:01:40.635Z,16.50
2023-03-06T17:04:07.123Z,14.15
2023-03-06T17:06:33.597Z,15.98
2023-03-06T17:09:00.166Z,15.68
2023-03-06T17:11:27.199Z,19.35
2023-03-06T17:13:55.218Z,16.13
2023-03-06T17:16:21.952Z,24.35
2023-03-06T17:18:49.489Z,13.90
2023-03-06T17:21:16.229Z,15.02
2023-03-06T17:23:43.064Z,14.43
2023-03-06T17:26:20.982Z,16.10
2023-03-06T17:28:47.637Z,15.85
2023-03-06T17:31:26.506Z,14.32
2023-03-06T17:33:57.120Z,13.82
2023-03-06T17:36:23.576Z,16.20
2023-03-06T17:38:50.032Z,16.02
2023-03-06T17:41:16.482Z,13.95
2023-03-06T17:43:42.919Z,16.95
2023-03-06T17:46:12.472Z,15.75
2023-03-06T17:48:39.808Z,14.80
2023-03-06T17:51:07.442Z,15.68
2023-03-06T17:53:34.178Z,15.13
2023-03-06T17:56:03.965Z,15.65
2023-03-06T17:58:30.476Z,13.63
2023-03-06T18:00:57.144Z,14.70
2023-03-06T18:03:23.682Z,13.77
2023-03-06T18:06:04.140Z,16.02
2023-03-06T18:08:32.099Z,15.45
2023-03-06T18:11:00.339Z,17.08
2023-03-06T18:15:53.160Z,16.73
2023-03-06T18:18:20.319Z,16.83
2023-03-06T18:20:47.324Z,15.93
2023-03-06T18:23:14.180Z,16.80
2023-03-06T18:25:41.386Z,16.77
2023-03-06T18:28:07.825Z,15.32
2023-03-06T18:30:38.989Z,14.43
2023-03-06T18:33:05.394Z,14.95
2023-03-06T18:35:33.589Z,14.05
2023-03-06T18:40:26.788Z,15.30
2023-03-06T18:42:54.744Z,17.35
2023-03-06T18:45:21.342Z,14.43
2023-03-06T18:47:48.055Z,14.95
2023-03-06T18:50:17.413Z,15.38
2023-03-06T18:52:44.663Z,15.52
2023-03-06T18:55:11.815Z,22.17
2023-03-06T18:57:38.726Z,16.48
2023-03-06T19:00:06.561Z,15.43
2023-03-06T19:02:33.115Z,14.65
2023-03-06T19:04:59.558Z,18.23
2023-03-06T19:07:25.975Z,16.45
2023-03-06T19:09:52.507Z,18.10
2023-03-06T19:12:18.950Z,15.27
2023-03-06T19:14:45.382Z,19.02
2023-03-06T19:17:12.054Z,14.55
2023-03-06T19:19:38.790Z,16.77
2023-03-06T19:22:05.250Z,14.82
2023-03-06T19:24:31.707Z,14.65
2023-03-06T19:26:58.078Z,14.32
2023-03-06T19:29:24.600Z,16.73
2023-03-06T19:31:52.087Z,18.38
2023-03-06T19:34:18.710Z,18.85
2023-03-06T19:36:45.155Z,22.17
2023-03-06T19:39:11.554Z,16.23
2023-03-06T19:41:37.974Z,18.23
2023-03-06T19:44:05.985Z,17.60
2023-03-06T19:46:33.233Z,20.15
2023-03-06T19:49:01.903Z,17.38
2023-03-06T19:51:29.244Z,19.38
2023-03-06T19:53:56.811Z,18.50
2023-03-06T19:56:29.179Z,19.77
2023-03-06T19:58:56.213Z,16.67
2023-03-06T20:01:25.040Z,19.70
2023-03-06T20:03:58.299Z,20.45
2023-03-06T20:06:27.099Z,18.42
2023-03-06T20:08:53.893Z,21.63
2023-03-06T20:11:23.360Z,17.77
2023-03-06T20:13:50.232Z,19.75
2023-03-06T20:16:17.638Z,17.77
2023-03-06T20:18:45.395Z,19.45
2023-03-06T20:21:12.111Z,20.65
2023-03-06T20:23:38.557Z,17.35
2023-03-06T20:26:11.838Z,20.60
2023-03-06T20:28:40.050Z,20.13
2023-03-06T20:33:34.440Z,19.17
2023-03-06T20:36:01.088Z,18.23
2023-03-06T20:38:27.600Z,19.55
2023-03-06T20:40:56.050Z,18.80
2023-03-06T20:43:23.417Z,17.05
2023-03-06T20:45:57.872Z,18.73
2023-03-06T20:48:24.421Z,19.38
2023-03-06T20:51:06.371Z,19.70
2023-03-06T20:53:35.021Z,22.00
2023-03-06T20:56:01.446Z,19.98
2023-03-06T20:58:30.096Z,19.05
2023-03-06T21:00:57.092Z,21.02
2023-03-06T21:03:24.165Z,22.92
2023-03-06T21:05:50.883Z,23.65
2023-03-06T21:08:17.330Z,19.77
2023-03-06T21:10:47.073Z,18.67
2023-03-06T21:13:14.582Z,19.65
2023-03-06T21:15:42.532Z,19.52
2023-03-06T21:18:09.819Z,19.67
2023-03-06T21:20:40.409Z,18.50
2023-03-06T21:23:07.627Z,17.38
2023-03-06T21:25:34.370Z,17.60
2023-03-06T21:28:01.093Z,17.00
2023-03-06T21:30:29.307Z,17.13
2023-03-06T21:35:22.553Z,17.17
2023-03-06T21:37:48.970Z,18.23
2023-03-06T21:40:15.681Z,17.75
2023-03-06T21:42:42.205Z,15.40
2023-03-06T21:45:09.177Z,17.38
2023-03-06T21:47:40.723Z,16.52
2023-03-06T21:50:09.963Z,16.63
2023-03-06T21:52:37.017Z,17.08
2023-03-06T21:55:03.873Z,17.27
2023-03-06T21:57:30.692Z,18.15
2023-03-06T21:59:57.138Z,16.77
2023-03-06T22:02:24.123Z,19.77
2023-03-06T22:04:52.533Z,16.98
2023-03-06T22:07:20.057Z,17.08
2023-03-06T22:09:46.608Z,20.77
2023-03-06T22:12:13.053Z,16.25
2023-03-06T22:14:39.605Z,19.13
2023-03-06T22:17:06.124Z,18.27
2023-03-06T22:19:32.616Z,19.20
2023-03-06T22:21:59.078Z,15.77
2023-03-06T22:24:25.521Z,17.50
2023-03-06T22:26:52.104Z,26.63
2023-03-06T22:29:18.539Z,25.67
2023-03-06T22:31:45.072Z,22.80
2023-03-06T22:34:11.539Z,15.40
2023-03-06T22:36:37.929Z,18.15
2023-03-06T22:39:04.489Z,20.55
2023-03-06T22:41:30.966Z,16.98
2023-03-06T22:43:59.338Z,16.42
2023-03-06T22:46:26.700Z,16.25
2023-03-06T22:48:56.075Z,14.90
2023-03-06T22:51:22.616Z,15.10
2023-03-06T22:53:49.438Z,17.05
2023-03-06T22:56:18.390Z,17.98
2023-03-06T22:58:45.104Z,16.92
2023-03-06T23:01:13.188Z,14.20
2023-03-06T23:03:42.186Z,15.27
2023-03-06T23:06:11.810Z,16.10
2023-03-06T23:08:38.933Z,13.60
2023-03-06T23:11:16.944Z,13.65
2023-03-06T23:13:43.436Z,15.75
2023-03-06T23:16:10.073Z,17.38
2023-03-06T23:18:37.598Z,17.05
2023-03-06T23:21:14.115Z,15.45
2023-03-06T23:23:40.762Z,16.83
2023-03-06T23:26:08.497Z,15.45
2023-03-06T23:28:35.145Z,18.08
2023-03-06T23:31:14.726Z,13.77
2023-03-06T23:33:41.647Z,18.05
2023-03-06T23:36:11.089Z,14.90
2023-03-06T23:38:37.915Z,18.15
2023-03-06T23:41:05.936Z,17.67
2023-03-06T23:43:32.869Z,14.82
2023-03-06T23:45:59.953Z,14.35
2023-03-06T23:48:29.136Z,15.77
2023-03-06T23:50:56.341Z,14.15
2023-03-06T23:53:23.914Z,13.05
2023-03-06T23:55:51.155Z,15.73
2023-03-06T23:58:19.133Z,17.95
